Terminal Aerodrome Forecast
Issued by NWS Sioux Falls, SD

Home | Current Version | Previous Version | Text Only | Print | Product List | Glossary On
Versions: 1 2 3 4 5 6 7 8 9 10 11 12
000
FTUS43 KFSD 281720
TAFHON
TAF
KHON 281720Z 2818/2918 18014G22KT P6SM SCT050
     FM290000 17007KT P6SM SCT050 SCT120
     FM290300 20005KT 6SM -TSRA BKN050CB
     FM290800 34006KT 6SM -RA OVC070
     FM291300 01014G21KT P6SM OVC012
      AMD NOT SKED=

USA.gov is the U.S. government's official web portal to all federal, state and local government web resources and services.